Terminal Aerodrome Forecast
Issued by NWS

Home | Current Version | Previous Version | Graphics & Text | Print | Product List | Glossary On
Versions: 1 2 3 4 5 6 7 8 9 10 11 12 13 14 15 16 17 18 19 20 21 22 23 24 25 26 27 28 29 30
000
FTUS43 KGRB 151520 AAB
TAFRHI
TAF AMD
KRHI 151520Z 1515/1612 07007KT P6SM BKN013
     FM151700 03004KT P6SM SCT200
     FM160600 12004KT P6SM SCT100
     FM160900 14004KT P6SM BKN070=

USA.gov is the U.S. government's official web portal to all federal, state and local government web resources and services.